sensor_id;sensor_type;location;lat;lon;timestamp;pressure;altitude;pressure_sealevel;temperature;humidity
62864;BME280;48954;59.950;11.014;2023-12-28T00:02:37;99159.83;;;-11.47;81.82
62864;BME280;48954;59.950;11.014;2023-12-28T00:05:06;99148.84;;;-11.45;81.64
62864;BME280;48954;59.950;11.014;2023-12-28T00:07:48;99142.04;;;-11.42;81.73
62864;BME280;48954;59.950;11.014;2023-12-28T00:10:16;99134.90;;;-11.41;81.93
62864;BME280;48954;59.950;11.014;2023-12-28T00:12:58;99127.15;;;-11.38;81.85
62864;BME280;48954;59.950;11.014;2023-12-28T00:15:30;99110.73;;;-11.35;82.18
62864;BME280;48954;59.950;11.014;2023-12-28T00:18:10;99107.48;;;-11.31;81.83
62864;BME280;48954;59.950;11.014;2023-12-28T00:20:39;99103.11;;;-11.28;81.85
62864;BME280;48954;59.950;11.014;2023-12-28T00:23:07;99093.92;;;-11.26;81.87
62864;BME280;48954;59.950;11.014;2023-12-28T00:25:58;99084.71;;;-11.22;81.95
62864;BME280;48954;59.950;11.014;2023-12-28T00:28:26;99069.10;;;-11.17;82.27
62864;BME280;48954;59.950;11.014;2023-12-28T00:31:02;99056.08;;;-11.15;82.21
62864;BME280;48954;59.950;11.014;2023-12-28T00:33:29;99041.59;;;-11.11;82.32
62864;BME280;48954;59.950;11.014;2023-12-28T00:35:55;99037.62;;;-11.08;82.27
62864;BME280;48954;59.950;11.014;2023-12-28T00:38:22;99029.35;;;-11.08;82.12
62864;BME280;48954;59.950;11.014;2023-12-28T00:40:47;99018.54;;;-11.09;82.04
62864;BME280;48954;59.950;11.014;2023-12-28T00:43:14;99009.80;;;-11.08;82.12
62864;BME280;48954;59.950;11.014;2023-12-28T00:45:40;99006.69;;;-11.10;82.10
62864;BME280;48954;59.950;11.014;2023-12-28T00:48:07;99008.19;;;-11.12;81.83
62864;BME280;48954;59.950;11.014;2023-12-28T00:50:33;99007.38;;;-11.12;81.90
62864;BME280;48954;59.950;11.014;2023-12-28T00:52:59;99001.27;;;-11.12;82.12
62864;BME280;48954;59.950;11.014;2023-12-28T00:55:25;98997.15;;;-11.14;82.00
62864;BME280;48954;59.950;11.014;2023-12-28T00:57:51;99002.23;;;-11.12;81.88
62864;BME280;48954;59.950;11.014;2023-12-28T01:00:17;98998.49;;;-11.11;82.00
62864;BME280;48954;59.950;11.014;2023-12-28T01:02:43;98995.04;;;-11.08;82.35
62864;BME280;48954;59.950;11.014;2023-12-28T01:05:09;98998.15;;;-11.06;82.44
62864;BME280;48954;59.950;11.014;2023-12-28T01:07:36;98970.84;;;-11.04;82.10
62864;BME280;48954;59.950;11.014;2023-12-28T01:10:02;98966.29;;;-11.02;82.26
62864;BME280;48954;59.950;11.014;2023-12-28T01:12:28;98970.95;;;-11.00;81.91
62864;BME280;48954;59.950;11.014;2023-12-28T01:14:55;98960.81;;;-10.98;82.41
62864;BME280;48954;59.950;11.014;2023-12-28T01:17:22;98955.44;;;-10.95;82.35
62864;BME280;48954;59.950;11.014;2023-12-28T01:19:49;98944.92;;;-10.92;82.39
62864;BME280;48954;59.950;11.014;2023-12-28T01:22:14;98934.34;;;-10.89;82.60
62864;BME280;48954;59.950;11.014;2023-12-28T01:24:40;98918.91;;;-10.87;82.40
62864;BME280;48954;59.950;11.014;2023-12-28T01:27:06;98914.73;;;-10.83;82.64
62864;BME280;48954;59.950;11.014;2023-12-28T01:29:33;98916.98;;;-10.80;82.57
62864;BME280;48954;59.950;11.014;2023-12-28T01:31:59;98922.84;;;-10.79;82.67
62864;BME280;48954;59.950;11.014;2023-12-28T01:34:25;98914.56;;;-10.77;82.55
62864;BME280;48954;59.950;11.014;2023-12-28T01:36:52;98905.45;;;-10.74;82.76
62864;BME280;48954;59.950;11.014;2023-12-28T01:39:19;98903.13;;;-10.74;82.50
62864;BME280;48954;59.950;11.014;2023-12-28T01:41:45;98897.51;;;-10.73;82.42
62864;BME280;48954;59.950;11.014;2023-12-28T01:44:11;98897.11;;;-10.72;82.46
62864;BME280;48954;59.950;11.014;2023-12-28T01:46:37;98896.11;;;-10.71;82.56
62864;BME280;48954;59.950;11.014;2023-12-28T01:49:04;98901.67;;;-10.72;82.62
62864;BME280;48954;59.950;11.014;2023-12-28T01:51:31;98878.92;;;-10.72;82.42
62864;BME280;48954;59.950;11.014;2023-12-28T01:53:57;98861.23;;;-10.72;82.41
62864;BME280;48954;59.950;11.014;2023-12-28T01:56:23;98842.47;;;-10.73;82.69
62864;BME280;48954;59.950;11.014;2023-12-28T01:58:50;98829.92;;;-10.73;82.60
62864;BME280;48954;59.950;11.014;2023-12-28T02:01:17;98817.79;;;-10.71;82.59
62864;BME280;48954;59.950;11.014;2023-12-28T02:03:43;98810.34;;;-10.69;82.64
62864;BME280;48954;59.950;11.014;2023-12-28T02:06:09;98807.83;;;-10.65;82.62
62864;BME280;48954;59.950;11.014;2023-12-28T02:08:36;98810.94;;;-10.63;82.82
62864;BME280;48954;59.950;11.014;2023-12-28T02:11:02;98812.91;;;-10.58;82.63
62864;BME280;48954;59.950;11.014;2023-12-28T02:13:29;98811.22;;;-10.54;82.96
62864;BME280;48954;59.950;11.014;2023-12-28T02:18:56;98785.07;;;-10.50;82.83
62864;BME280;48954;59.950;11.014;2023-12-28T02:21:24;98779.46;;;-10.47;82.99
62864;BME280;48954;59.950;11.014;2023-12-28T02:23:51;98768.27;;;-10.46;82.78
62864;BME280;48954;59.950;11.014;2023-12-28T02:26:17;98761.50;;;-10.43;82.63
62864;BME280;48954;59.950;11.014;2023-12-28T02:28:44;98754.56;;;-10.41;82.93
62864;BME280;48954;59.950;11.014;2023-12-28T02:31:18;98741.23;;;-10.39;82.90
62864;BME280;48954;59.950;11.014;2023-12-28T02:33:51;98728.28;;;-10.37;82.85
62864;BME280;48954;59.950;11.014;2023-12-28T02:36:23;98709.23;;;-10.34;82.85
62864;BME280;48954;59.950;11.014;2023-12-28T02:38:51;98706.87;;;-10.32;82.82
62864;BME280;48954;59.950;11.014;2023-12-28T02:41:19;98699.36;;;-10.29;83.02
62864;BME280;48954;59.950;11.014;2023-12-28T02:43:47;98701.77;;;-10.27;82.99
62864;BME280;48954;59.950;11.014;2023-12-28T02:46:13;98699.86;;;-10.25;83.00
62864;BME280;48954;59.950;11.014;2023-12-28T02:48:39;98690.69;;;-10.23;83.16
62864;BME280;48954;59.950;11.014;2023-12-28T02:51:05;98686.05;;;-10.19;83.30
62864;BME280;48954;59.950;11.014;2023-12-28T02:53:32;98679.36;;;-10.16;83.08
62864;BME280;48954;59.950;11.014;2023-12-28T02:55:58;98667.42;;;-10.11;83.21
62864;BME280;48954;59.950;11.014;2023-12-28T02:58:24;98653.80;;;-10.07;83.31
62864;BME280;48954;59.950;11.014;2023-12-28T03:00:51;98645.77;;;-10.03;83.46
62864;BME280;48954;59.950;11.014;2023-12-28T03:03:18;98639.66;;;-9.98;83.33
62864;BME280;48954;59.950;11.014;2023-12-28T03:05:44;98624.34;;;-9.94;83.28
62864;BME280;48954;59.950;11.014;2023-12-28T03:08:10;98608.15;;;-9.89;83.51
62864;BME280;48954;59.950;11.014;2023-12-28T03:10:36;98600.36;;;-9.84;83.65
62864;BME280;48954;59.950;11.014;2023-12-28T03:13:02;98598.80;;;-9.79;83.92
62864;BME280;48954;59.950;11.014;2023-12-28T03:15:28;98593.42;;;-9.73;83.76
62864;BME280;48954;59.950;11.014;2023-12-28T03:17:53;98582.86;;;-9.67;83.95
62864;BME280;48954;59.950;11.014;2023-12-28T03:20:20;98578.23;;;-9.61;84.26
62864;BME280;48954;59.950;11.014;2023-12-28T03:22:46;98568.63;;;-9.55;84.10
62864;BME280;48954;59.950;11.014;2023-12-28T03:25:12;98565.78;;;-9.47;84.37
62864;BME280;48954;59.950;11.014;2023-12-28T03:27:38;98554.48;;;-9.41;84.43
62864;BME280;48954;59.950;11.014;2023-12-28T03:30:06;98546.26;;;-9.34;84.60
62864;BME280;48954;59.950;11.014;2023-12-28T03:32:32;98540.00;;;-9.27;84.49
62864;BME280;48954;59.950;11.014;2023-12-28T03:34:58;98534.42;;;-9.22;84.53
62864;BME280;48954;59.950;11.014;2023-12-28T03:37:24;98529.06;;;-9.17;84.44
62864;BME280;48954;59.950;11.014;2023-12-28T03:39:50;98517.43;;;-9.13;84.57
62864;BME280;48954;59.950;11.014;2023-12-28T03:42:16;98509.77;;;-9.09;84.28
62864;BME280;48954;59.950;11.014;2023-12-28T03:44:42;98500.81;;;-9.06;84.55
62864;BME280;48954;59.950;11.014;2023-12-28T03:47:08;98496.67;;;-9.02;84.56
62864;BME280;48954;59.950;11.014;2023-12-28T03:49:34;98487.42;;;-8.99;84.38
62864;BME280;48954;59.950;11.014;2023-12-28T03:52:00;98471.64;;;-8.98;84.15
62864;BME280;48954;59.950;11.014;2023-12-28T03:54:26;98466.17;;;-8.97;84.19
62864;BME280;48954;59.950;11.014;2023-12-28T03:56:52;98459.13;;;-8.97;84.29
62864;BME280;48954;59.950;11.014;2023-12-28T03:59:18;98451.07;;;-8.95;84.47
62864;BME280;48954;59.950;11.014;2023-12-28T04:01:44;98440.52;;;-8.97;84.17
62864;BME280;48954;59.950;11.014;2023-12-28T04:04:10;98436.85;;;-8.95;84.14
62864;BME280;48954;59.950;11.014;2023-12-28T04:06:37;98427.63;;;-8.93;84.38
62864;BME280;48954;59.950;11.014;2023-12-28T04:09:03;98412.60;;;-8.94;84.36
62864;BME280;48954;59.950;11.014;2023-12-28T04:11:29;98400.89;;;-8.91;84.31
62864;BME280;48954;59.950;11.014;2023-12-28T04:13:55;98390.65;;;-8.89;84.43
62864;BME280;48954;59.950;11.014;2023-12-28T04:16:21;98372.44;;;-8.88;84.54
62864;BME280;48954;59.950;11.014;2023-12-28T04:18:47;98367.38;;;-8.85;84.59
62864;BME280;48954;59.950;11.014;2023-12-28T04:21:13;98359.90;;;-8.83;84.65
62864;BME280;48954;59.950;11.014;2023-12-28T04:23:40;98347.27;;;-8.82;84.71
62864;BME280;48954;59.950;11.014;2023-12-28T04:26:07;98340.50;;;-8.78;84.86
62864;BME280;48954;59.950;11.014;2023-12-28T04:28:33;98333.79;;;-8.76;84.77
62864;BME280;48954;59.950;11.014;2023-12-28T04:31:02;98324.09;;;-8.73;84.83
62864;BME280;48954;59.950;11.014;2023-12-28T04:33:28;98314.17;;;-8.73;84.92
62864;BME280;48954;59.950;11.014;2023-12-28T04:35:54;98302.39;;;-8.71;84.76
62864;BME280;48954;59.950;11.014;2023-12-28T04:38:20;98294.87;;;-8.70;84.87
62864;BME280;48954;59.950;11.014;2023-12-28T04:40:49;98282.86;;;-8.68;84.96
62864;BME280;48954;59.950;11.014;2023-12-28T04:43:16;98273.48;;;-8.69;84.95
62864;BME280;48954;59.950;11.014;2023-12-28T04:45:43;98263.71;;;-8.68;84.88
62864;BME280;48954;59.950;11.014;2023-12-28T04:48:15;98251.20;;;-8.68;84.86
62864;BME280;48954;59.950;11.014;2023-12-28T04:50:41;98234.61;;;-8.69;84.78
62864;BME280;48954;59.950;11.014;2023-12-28T04:53:07;98226.36;;;-8.71;84.86
62864;BME280;48954;59.950;11.014;2023-12-28T04:55:33;98220.27;;;-8.68;84.91
62864;BME280;48954;59.950;11.014;2023-12-28T04:57:59;98217.89;;;-8.68;84.83
62864;BME280;48954;59.950;11.014;2023-12-28T05:00:24;98216.97;;;-8.67;84.97
62864;BME280;48954;59.950;11.014;2023-12-28T05:02:50;98202.90;;;-8.64;85.16
62864;BME280;48954;59.950;11.014;2023-12-28T05:05:16;98189.94;;;-8.62;84.95
62864;BME280;48954;59.950;11.014;2023-12-28T05:07:42;98178.16;;;-8.61;85.10
62864;BME280;48954;59.950;11.014;2023-12-28T05:10:08;98166.69;;;-8.58;85.09
62864;BME280;48954;59.950;11.014;2023-12-28T05:12:34;98155.63;;;-8.56;85.04
62864;BME280;48954;59.950;11.014;2023-12-28T05:15:00;98143.19;;;-8.53;85.34
62864;BME280;48954;59.950;11.014;2023-12-28T05:17:26;98136.45;;;-8.50;85.32
62864;BME280;48954;59.950;11.014;2023-12-28T05:19:52;98120.14;;;-8.48;85.38
62864;BME280;48954;59.950;11.014;2023-12-28T05:22:18;98105.82;;;-8.44;85.57
62864;BME280;48954;59.950;11.014;2023-12-28T05:24:44;98094.06;;;-8.40;85.52
62864;BME280;48954;59.950;11.014;2023-12-28T05:27:11;98085.23;;;-8.36;85.72
62864;BME280;48954;59.950;11.014;2023-12-28T05:29:37;98080.53;;;-8.31;85.84
62864;BME280;48954;59.950;11.014;2023-12-28T05:32:03;98080.11;;;-8.25;85.93
62864;BME280;48954;59.950;11.014;2023-12-28T05:34:31;98070.37;;;-8.19;86.02
62864;BME280;48954;59.950;11.014;2023-12-28T05:36:57;98063.69;;;-8.12;86.03
62864;BME280;48954;59.950;11.014;2023-12-28T05:39:23;98063.59;;;-8.07;86.11
62864;BME280;48954;59.950;11.014;2023-12-28T05:41:49;98058.41;;;-8.01;86.27
62864;BME280;48954;59.950;11.014;2023-12-28T05:44:15;98051.18;;;-7.96;86.40
62864;BME280;48954;59.950;11.014;2023-12-28T05:46:42;98039.70;;;-7.90;86.55
62864;BME280;48954;59.950;11.014;2023-12-28T05:49:08;98037.41;;;-7.84;86.48
62864;BME280;48954;59.950;11.014;2023-12-28T05:51:38;98024.98;;;-7.80;86.38
62864;BME280;48954;59.950;11.014;2023-12-28T05:54:04;98019.73;;;-7.74;86.50
62864;BME280;48954;59.950;11.014;2023-12-28T05:56:31;98018.52;;;-7.68;86.69
62864;BME280;48954;59.950;11.014;2023-12-28T05:58:58;98004.52;;;-7.64;86.61
62864;BME280;48954;59.950;11.014;2023-12-28T06:01:24;98004.23;;;-7.57;86.86
62864;BME280;48954;59.950;11.014;2023-12-28T06:03:50;97994.30;;;-7.52;86.95
62864;BME280;48954;59.950;11.014;2023-12-28T06:06:17;97991.34;;;-7.44;86.90
62864;BME280;48954;59.950;11.014;2023-12-28T06:08:45;97984.82;;;-7.36;87.01
62864;BME280;48954;59.950;11.014;2023-12-28T06:11:11;97981.84;;;-7.28;87.07
62864;BME280;48954;59.950;11.014;2023-12-28T06:13:37;97974.75;;;-7.22;87.08
62864;BME280;48954;59.950;11.014;2023-12-28T06:16:04;97966.98;;;-7.15;87.06
62864;BME280;48954;59.950;11.014;2023-12-28T06:18:31;97965.81;;;-7.08;87.33
62864;BME280;48954;59.950;11.014;2023-12-28T06:21:01;97954.91;;;-7.03;87.20
62864;BME280;48954;59.950;11.014;2023-12-28T06:23:30;97941.52;;;-6.99;87.26
62864;BME280;48954;59.950;11.014;2023-12-28T06:25:56;97939.70;;;-6.95;87.24
62864;BME280;48954;59.950;11.014;2023-12-28T06:28:21;97930.56;;;-6.91;87.28
62864;BME280;48954;59.950;11.014;2023-12-28T06:30:50;97927.92;;;-6.87;87.21
62864;BME280;48954;59.950;11.014;2023-12-28T06:33:17;97918.09;;;-6.83;87.40
62864;BME280;48954;59.950;11.014;2023-12-28T06:35:45;97907.52;;;-6.81;87.16
62864;BME280;48954;59.950;11.014;2023-12-28T06:38:15;97894.61;;;-6.79;87.21
62864;BME280;48954;59.950;11.014;2023-12-28T06:40:44;97888.55;;;-6.77;87.40
62864;BME280;48954;59.950;11.014;2023-12-28T06:43:10;97880.19;;;-6.76;87.27
62864;BME280;48954;59.950;11.014;2023-12-28T06:45:40;97873.18;;;-6.74;87.16
62864;BME280;48954;59.950;11.014;2023-12-28T06:48:06;97870.27;;;-6.73;87.16
62864;BME280;48954;59.950;11.014;2023-12-28T06:50:33;97856.52;;;-6.71;87.19
62864;BME280;48954;59.950;11.014;2023-12-28T06:53:02;97849.23;;;-6.70;87.39
62864;BME280;48954;59.950;11.014;2023-12-28T06:55:29;97841.98;;;-6.68;87.54
62864;BME280;48954;59.950;11.014;2023-12-28T06:58:00;97838.55;;;-6.67;87.22
62864;BME280;48954;59.950;11.014;2023-12-28T07:00:27;97833.86;;;-6.65;87.36
62864;BME280;48954;59.950;11.014;2023-12-28T07:02:53;97824.53;;;-6.64;87.41
62864;BME280;48954;59.950;11.014;2023-12-28T07:05:20;97820.59;;;-6.62;87.09
62864;BME280;48954;59.950;11.014;2023-12-28T07:07:51;97819.25;;;-6.60;87.45
62864;BME280;48954;59.950;11.014;2023-12-28T07:10:17;97816.94;;;-6.59;87.47
62864;BME280;48954;59.950;11.014;2023-12-28T07:12:44;97815.89;;;-6.57;87.42
62864;BME280;48954;59.950;11.014;2023-12-28T07:15:12;97810.10;;;-6.56;87.39
62864;BME280;48954;59.950;11.014;2023-12-28T07:17:40;97808.89;;;-6.54;87.55
62864;BME280;48954;59.950;11.014;2023-12-28T07:20:09;97803.26;;;-6.53;87.47
62864;BME280;48954;59.950;11.014;2023-12-28T07:22:42;97800.65;;;-6.50;87.62
62864;BME280;48954;59.950;11.014;2023-12-28T07:25:09;97794.60;;;-6.48;87.56
62864;BME280;48954;59.950;11.014;2023-12-28T07:27:39;97789.48;;;-6.47;87.48
62864;BME280;48954;59.950;11.014;2023-12-28T07:30:06;97790.27;;;-6.45;87.56
62864;BME280;48954;59.950;11.014;2023-12-28T07:32:47;97785.04;;;-6.43;87.58
62864;BME280;48954;59.950;11.014;2023-12-28T07:35:13;97774.66;;;-6.43;87.63
62864;BME280;48954;59.950;11.014;2023-12-28T07:37:42;97764.39;;;-6.39;87.29
62864;BME280;48954;59.950;11.014;2023-12-28T07:40:14;97760.79;;;-6.39;87.70
62864;BME280;48954;59.950;11.014;2023-12-28T07:42:48;97762.25;;;-6.37;87.63
62864;BME280;48954;59.950;11.014;2023-12-28T07:45:15;97759.58;;;-6.35;87.38
62864;BME280;48954;59.950;11.014;2023-12-28T07:47:44;97750.77;;;-6.34;87.52
62864;BME280;48954;59.950;11.014;2023-12-28T07:50:22;97737.27;;;-6.32;87.43
62864;BME280;48954;59.950;11.014;2023-12-28T07:52:52;97739.83;;;-6.32;87.52
62864;BME280;48954;59.950;11.014;2023-12-28T07:55:20;97738.59;;;-6.32;87.54
62864;BME280;48954;59.950;11.014;2023-12-28T07:58:01;97738.06;;;-6.32;87.43
62864;BME280;48954;59.950;11.014;2023-12-28T08:00:27;97732.77;;;-6.32;87.54
62864;BME280;48954;59.950;11.014;2023-12-28T08:03:01;97732.69;;;-6.31;87.34
62864;BME280;48954;59.950;11.014;2023-12-28T08:05:28;97734.08;;;-6.30;87.36
62864;BME280;48954;59.950;11.014;2023-12-28T08:08:13;97726.03;;;-6.30;87.47
62864;BME280;48954;59.950;11.014;2023-12-28T08:10:53;97723.73;;;-6.30;87.53
62864;BME280;48954;59.950;11.014;2023-12-28T08:13:22;97719.77;;;-6.30;87.92
62864;BME280;48954;59.950;11.014;2023-12-28T08:16:02;97709.92;;;-6.29;87.58
62864;BME280;48954;59.950;11.014;2023-12-28T08:18:44;97706.93;;;-6.29;87.62
62864;BME280;48954;59.950;11.014;2023-12-28T08:21:12;97706.66;;;-6.29;87.60
62864;BME280;48954;59.950;11.014;2023-12-28T08:23:42;97702.77;;;-6.27;87.49
62864;BME280;48954;59.950;11.014;2023-12-28T08:26:16;97702.66;;;-6.27;87.75
62864;BME280;48954;59.950;11.014;2023-12-28T08:28:44;97696.27;;;-6.26;87.74
62864;BME280;48954;59.950;11.014;2023-12-28T08:31:17;97689.88;;;-6.25;87.68
62864;BME280;48954;59.950;11.014;2023-12-28T08:33:55;97686.94;;;-6.23;87.96
62864;BME280;48954;59.950;11.014;2023-12-28T08:39:08;97685.27;;;-6.20;87.96
62864;BME280;48954;59.950;11.014;2023-12-28T08:41:38;97679.24;;;-6.18;87.82
62864;BME280;48954;59.950;11.014;2023-12-28T08:44:20;97668.48;;;-6.18;87.83
62864;BME280;48954;59.950;11.014;2023-12-28T08:46:48;97665.25;;;-6.17;87.77
62864;BME280;48954;59.950;11.014;2023-12-28T08:49:17;97661.86;;;-6.16;87.87
62864;BME280;48954;59.950;11.014;2023-12-28T08:51:47;97656.41;;;-6.14;88.02
62864;BME280;48954;59.950;11.014;2023-12-28T08:54:15;97642.83;;;-6.12;87.66
62864;BME280;48954;59.950;11.014;2023-12-28T08:56:43;97641.39;;;-6.10;87.78
62864;BME280;48954;59.950;11.014;2023-12-28T08:59:14;97641.98;;;-6.08;87.93
62864;BME280;48954;59.950;11.014;2023-12-28T09:01:41;97643.05;;;-6.06;87.89
62864;BME280;48954;59.950;11.014;2023-12-28T09:04:28;97644.48;;;-6.02;87.84
62864;BME280;48954;59.950;11.014;2023-12-28T09:07:09;97646.91;;;-6.01;87.77
62864;BME280;48954;59.950;11.014;2023-12-28T09:09:50;97641.94;;;-5.98;87.87
62864;BME280;48954;59.950;11.014;2023-12-28T09:12:18;97649.14;;;-5.96;87.99
62864;BME280;48954;59.950;11.014;2023-12-28T09:14:50;97644.81;;;-5.94;87.74
62864;BME280;48954;59.950;11.014;2023-12-28T09:17:33;97642.02;;;-5.91;87.95
62864;BME280;48954;59.950;11.014;2023-12-28T09:20:14;97633.11;;;-5.88;88.19
62864;BME280;48954;59.950;11.014;2023-12-28T09:25:45;97630.84;;;-5.80;87.92
62864;BME280;48954;59.950;11.014;2023-12-28T09:28:27;97628.30;;;-5.76;87.81
62864;BME280;48954;59.950;11.014;2023-12-28T09:30:56;97625.77;;;-5.73;87.98
62864;BME280;48954;59.950;11.014;2023-12-28T09:33:26;97628.27;;;-5.70;87.71
62864;BME280;48954;59.950;11.014;2023-12-28T09:36:06;97628.94;;;-5.67;87.80
62864;BME280;48954;59.950;11.014;2023-12-28T09:38:42;97623.36;;;-5.65;87.75
62864;BME280;48954;59.950;11.014;2023-12-28T09:41:26;97621.17;;;-5.61;87.85
62864;BME280;48954;59.950;11.014;2023-12-28T09:44:11;97625.35;;;-5.59;87.97
62864;BME280;48954;59.950;11.014;2023-12-28T09:46:42;97628.14;;;-5.55;87.53
62864;BME280;48954;59.950;11.014;2023-12-28T09:49:23;97624.52;;;-5.51;87.80
62864;BME280;48954;59.950;11.014;2023-12-28T09:52:06;97619.96;;;-5.49;87.72
62864;BME280;48954;59.950;11.014;2023-12-28T09:54:42;97621.67;;;-5.47;87.53
62864;BME280;48954;59.950;11.014;2023-12-28T09:57:11;97618.34;;;-5.46;87.83
62864;BME280;48954;59.950;11.014;2023-12-28T09:59:44;97618.33;;;-5.44;87.66
62864;BME280;48954;59.950;11.014;2023-12-28T10:02:18;97618.14;;;-5.41;87.74
62864;BME280;48954;59.950;11.014;2023-12-28T10:04:48;97616.52;;;-5.38;87.81
62864;BME280;48954;59.950;11.014;2023-12-28T10:07:14;97612.24;;;-5.36;87.58
62864;BME280;48954;59.950;11.014;2023-12-28T10:09:42;97609.23;;;-5.32;87.62
62864;BME280;48954;59.950;11.014;2023-12-28T10:12:09;97609.02;;;-5.28;87.70
62864;BME280;48954;59.950;11.014;2023-12-28T10:14:44;97609.08;;;-5.24;87.70
62864;BME280;48954;59.950;11.014;2023-12-28T10:17:11;97605.80;;;-5.21;87.46
62864;BME280;48954;59.950;11.014;2023-12-28T10:19:41;97609.02;;;-5.19;87.49
62864;BME280;48954;59.950;11.014;2023-12-28T10:22:07;97607.37;;;-5.17;87.52
62864;BME280;48954;59.950;11.014;2023-12-28T10:24:42;97604.58;;;-5.14;87.62
62864;BME280;48954;59.950;11.014;2023-12-28T10:27:09;97601.95;;;-5.12;87.30
62864;BME280;48954;59.950;11.014;2023-12-28T10:29:36;97600.91;;;-5.11;87.24
62864;BME280;48954;59.950;11.014;2023-12-28T10:32:03;97598.65;;;-5.10;87.32
62864;BME280;48954;59.950;11.014;2023-12-28T10:34:35;97596.26;;;-5.09;87.20
62864;BME280;48954;59.950;11.014;2023-12-28T10:37:02;97597.49;;;-5.08;87.24
62864;BME280;48954;59.950;11.014;2023-12-28T10:39:33;97604.55;;;-5.04;87.29
62864;BME280;48954;59.950;11.014;2023-12-28T10:42:04;97605.30;;;-4.99;87.18
62864;BME280;48954;59.950;11.014;2023-12-28T10:45:02;97600.66;;;-4.95;87.14
62864;BME280;48954;59.950;11.014;2023-12-28T10:47:32;97605.42;;;-4.95;86.83
62864;BME280;48954;59.950;11.014;2023-12-28T10:50:00;97602.55;;;-4.93;87.02
62864;BME280;48954;59.950;11.014;2023-12-28T10:52:30;97592.93;;;-4.90;86.91
62864;BME280;48954;59.950;11.014;2023-12-28T10:55:16;97595.17;;;-4.84;87.14
62864;BME280;48954;59.950;11.014;2023-12-28T11:00:24;97595.95;;;-4.74;87.04
62864;BME280;48954;59.950;11.014;2023-12-28T11:03:03;97593.78;;;-4.69;86.79
62864;BME280;48954;59.950;11.014;2023-12-28T11:05:31;97598.41;;;-4.65;86.62
62864;BME280;48954;59.950;11.014;2023-12-28T11:07:59;97593.23;;;-4.61;86.85
62864;BME280;48954;59.950;11.014;2023-12-28T11:10:26;97593.17;;;-4.57;86.77
62864;BME280;48954;59.950;11.014;2023-12-28T11:12:56;97589.20;;;-4.55;86.54
62864;BME280;48954;59.950;11.014;2023-12-28T11:15:27;97587.33;;;-4.53;86.74
62864;BME280;48954;59.950;11.014;2023-12-28T11:17:58;97583.48;;;-4.48;86.59
62864;BME280;48954;59.950;11.014;2023-12-28T11:20:38;97585.02;;;-4.45;86.20
62864;BME280;48954;59.950;11.014;2023-12-28T11:23:06;97584.42;;;-4.43;86.31
62864;BME280;48954;59.950;11.014;2023-12-28T11:25:32;97581.64;;;-4.42;86.13
62864;BME280;48954;59.950;11.014;2023-12-28T11:28:00;97568.91;;;-4.40;86.16
62864;BME280;48954;59.950;11.014;2023-12-28T11:30:26;97565.80;;;-4.34;86.20
62864;BME280;48954;59.950;11.014;2023-12-28T11:32:56;97572.62;;;-4.35;86.03
62864;BME280;48954;59.950;11.014;2023-12-28T11:35:22;97576.38;;;-4.34;86.25
62864;BME280;48954;59.950;11.014;2023-12-28T11:37:52;97576.95;;;-4.38;85.90
62864;BME280;48954;59.950;11.014;2023-12-28T11:40:20;97574.91;;;-4.39;85.73
62864;BME280;48954;59.950;11.014;2023-12-28T11:42:54;97580.59;;;-4.38;85.77
62864;BME280;48954;59.950;11.014;2023-12-28T11:45:22;97581.00;;;-4.38;85.84
62864;BME280;48954;59.950;11.014;2023-12-28T11:48:01;97577.69;;;-4.41;85.62
62864;BME280;48954;59.950;11.014;2023-12-28T11:50:29;97577.16;;;-4.46;85.69
62864;BME280;48954;59.950;11.014;2023-12-28T11:52:57;97572.79;;;-4.49;85.44
62864;BME280;48954;59.950;11.014;2023-12-28T11:55:23;97570.80;;;-4.49;85.51
62864;BME280;48954;59.950;11.014;2023-12-28T11:57:50;97570.14;;;-4.46;85.61
62864;BME280;48954;59.950;11.014;2023-12-28T12:00:17;97580.60;;;-4.44;85.47
62864;BME280;48954;59.950;11.014;2023-12-28T12:02:45;97584.77;;;-4.38;85.33
62864;BME280;48954;59.950;11.014;2023-12-28T12:05:14;97586.07;;;-4.30;85.49
62864;BME280;48954;59.950;11.014;2023-12-28T12:07:41;97587.70;;;-4.24;84.96
62864;BME280;48954;59.950;11.014;2023-12-28T12:10:07;97585.67;;;-4.19;85.18
62864;BME280;48954;59.950;11.014;2023-12-28T12:12:35;97582.96;;;-4.15;85.35
62864;BME280;48954;59.950;11.014;2023-12-28T12:15:03;97585.05;;;-4.13;85.02
62864;BME280;48954;59.950;11.014;2023-12-28T12:17:30;97580.79;;;-4.12;85.21
62864;BME280;48954;59.950;11.014;2023-12-28T12:20:10;97583.88;;;-4.12;84.76
62864;BME280;48954;59.950;11.014;2023-12-28T12:22:38;97588.60;;;-4.09;84.90
62864;BME280;48954;59.950;11.014;2023-12-28T12:25:20;97586.48;;;-4.09;84.67
62864;BME280;48954;59.950;11.014;2023-12-28T12:27:57;97578.98;;;-4.12;84.60
62864;BME280;48954;59.950;11.014;2023-12-28T12:30:26;97584.11;;;-4.14;84.56
62864;BME280;48954;59.950;11.014;2023-12-28T12:33:09;97587.21;;;-4.18;84.46
62864;BME280;48954;59.950;11.014;2023-12-28T12:35:51;97599.33;;;-4.25;84.46
62864;BME280;48954;59.950;11.014;2023-12-28T12:38:35;97602.73;;;-4.27;84.54
62864;BME280;48954;59.950;11.014;2023-12-28T12:41:02;97606.82;;;-4.31;84.47
62864;BME280;48954;59.950;11.014;2023-12-28T12:43:29;97615.17;;;-4.34;84.29
62864;BME280;48954;59.950;11.014;2023-12-28T12:45:56;97611.97;;;-4.39;84.12
62864;BME280;48954;59.950;11.014;2023-12-28T12:48:26;97607.46;;;-4.44;84.43
62864;BME280;48954;59.950;11.014;2023-12-28T12:50:52;97615.46;;;-4.48;84.12
62864;BME280;48954;59.950;11.014;2023-12-28T12:53:18;97615.98;;;-4.53;83.96
62864;BME280;48954;59.950;11.014;2023-12-28T12:55:45;97606.28;;;-4.56;84.22
62864;BME280;48954;59.950;11.014;2023-12-28T12:58:13;97608.31;;;-4.60;84.19
62864;BME280;48954;59.950;11.014;2023-12-28T13:00:42;97614.01;;;-4.64;84.11
62864;BME280;48954;59.950;11.014;2023-12-28T13:03:11;97621.41;;;-4.72;84.50
62864;BME280;48954;59.950;11.014;2023-12-28T13:05:52;97642.19;;;-4.74;84.50
62864;BME280;48954;59.950;11.014;2023-12-28T13:08:18;97652.37;;;-4.78;84.54
62864;BME280;48954;59.950;11.014;2023-12-28T13:11:13;97657.88;;;-4.79;84.77